sensor_id;sensor_type;location;lat;lon;timestamp;P1;durP1;ratioP1;P2;durP2;ratioP2
40489;SDS011;26196;52.302;10.572;2023-02-04T00:00:28;2.97;;;0.95;;
40489;SDS011;26196;52.302;10.572;2023-02-04T00:04:29;1.42;;;0.35;;
40489;SDS011;26196;52.302;10.572;2023-02-04T00:08:29;1.45;;;0.30;;
40489;SDS011;26196;52.302;10.572;2023-02-04T00:12:30;1.40;;;0.53;;
40489;SDS011;26196;52.302;10.572;2023-02-04T00:16:30;0.20;;;0.15;;
40489;SDS011;26196;52.302;10.572;2023-02-04T00:20:30;0.70;;;0.47;;
40489;SDS011;26196;52.302;10.572;2023-02-04T00:29:06;0.95;;;0.22;;
40489;SDS011;26196;52.302;10.572;2023-02-04T00:33:06;2.07;;;0.83;;
40489;SDS011;26196;52.302;10.572;2023-02-04T00:37:06;0.90;;;0.40;;
40489;SDS011;26196;52.302;10.572;2023-02-04T00:41:07;0.90;;;0.30;;
40489;SDS011;26196;52.302;10.572;2023-02-04T00:45:07;3.40;;;0.50;;
40489;SDS011;26196;52.302;10.572;2023-02-04T00:49:09;3.78;;;0.40;;
40489;SDS011;26196;52.302;10.572;2023-02-04T00:53:09;1.30;;;0.30;;
40489;SDS011;26196;52.302;10.572;2023-02-04T00:57:10;2.13;;;0.40;;
40489;SDS011;26196;52.302;10.572;2023-02-04T01:01:10;0.80;;;0.33;;
40489;SDS011;26196;52.302;10.572;2023-02-04T01:05:10;0.52;;;0.32;;
40489;SDS011;26196;52.302;10.572;2023-02-04T01:09:11;1.00;;;0.50;;
40489;SDS011;26196;52.302;10.572;2023-02-04T01:13:11;1.05;;;0.40;;
40489;SDS011;26196;52.302;10.572;2023-02-04T01:17:12;1.48;;;0.30;;
40489;SDS011;26196;52.302;10.572;2023-02-04T01:21:12;0.50;;;0.30;;
40489;SDS011;26196;52.302;10.572;2023-02-04T01:25:13;1.23;;;0.47;;
40489;SDS011;26196;52.302;10.572;2023-02-04T01:33:48;1.17;;;0.40;;
40489;SDS011;26196;52.302;10.572;2023-02-04T01:37:48;1.10;;;0.40;;
40489;SDS011;26196;52.302;10.572;2023-02-04T01:41:48;0.73;;;0.40;;
40489;SDS011;26196;52.302;10.572;2023-02-04T01:50:23;1.23;;;0.50;;
40489;SDS011;26196;52.302;10.572;2023-02-04T01:54:24;1.10;;;0.38;;
40489;SDS011;26196;52.302;10.572;2023-02-04T01:58:33;1.60;;;0.40;;
40489;SDS011;26196;52.302;10.572;2023-02-04T02:02:37;4.72;;;0.40;;
40489;SDS011;26196;52.302;10.572;2023-02-04T02:06:52;0.65;;;0.30;;
40489;SDS011;26196;52.302;10.572;2023-02-04T02:10:56;1.98;;;0.45;;
40489;SDS011;26196;52.302;10.572;2023-02-04T02:14:56;1.27;;;0.40;;
40489;SDS011;26196;52.302;10.572;2023-02-04T02:18:58;1.55;;;1.25;;
40489;SDS011;26196;52.302;10.572;2023-02-04T02:27:37;0.43;;;0.30;;
40489;SDS011;26196;52.302;10.572;2023-02-04T02:31:37;1.60;;;0.40;;
40489;SDS011;26196;52.302;10.572;2023-02-04T02:35:37;0.75;;;0.38;;
40489;SDS011;26196;52.302;10.572;2023-02-04T02:39:38;1.02;;;0.40;;
40489;SDS011;26196;52.302;10.572;2023-02-04T02:43:40;1.27;;;0.57;;
40489;SDS011;26196;52.302;10.572;2023-02-04T02:47:41;0.70;;;0.40;;
40489;SDS011;26196;52.302;10.572;2023-02-04T02:51:42;0.88;;;0.50;;
40489;SDS011;26196;52.302;10.572;2023-02-04T02:55:42;0.55;;;0.28;;
40489;SDS011;26196;52.302;10.572;2023-02-04T02:59:44;0.45;;;0.22;;
40489;SDS011;26196;52.302;10.572;2023-02-04T03:08:20;1.75;;;0.30;;
40489;SDS011;26196;52.302;10.572;2023-02-04T03:12:21;0.82;;;0.38;;
40489;SDS011;26196;52.302;10.572;2023-02-04T03:16:21;0.57;;;0.47;;
40489;SDS011;26196;52.302;10.572;2023-02-04T03:20:22;1.50;;;0.50;;
40489;SDS011;26196;52.302;10.572;2023-02-04T03:24:26;1.10;;;0.40;;
40489;SDS011;26196;52.302;10.572;2023-02-04T03:28:26;0.32;;;0.30;;
40489;SDS011;26196;52.302;10.572;2023-02-04T03:32:27;0.90;;;0.40;;
40489;SDS011;26196;52.302;10.572;2023-02-04T03:36:27;0.88;;;0.40;;
40489;SDS011;26196;52.302;10.572;2023-02-04T03:40:27;1.33;;;0.30;;
40489;SDS011;26196;52.302;10.572;2023-02-04T03:49:03;1.05;;;0.30;;
40489;SDS011;26196;52.302;10.572;2023-02-04T03:53:03;0.52;;;0.40;;
40489;SDS011;26196;52.302;10.572;2023-02-04T03:57:04;1.38;;;0.65;;
40489;SDS011;26196;52.302;10.572;2023-02-04T04:01:04;0.63;;;0.32;;
40489;SDS011;26196;52.302;10.572;2023-02-04T04:09:42;1.05;;;0.30;;
40489;SDS011;26196;52.302;10.572;2023-02-04T04:13:42;0.47;;;0.30;;
40489;SDS011;26196;52.302;10.572;2023-02-04T04:17:43;0.85;;;0.52;;
40489;SDS011;26196;52.302;10.572;2023-02-04T04:21:43;0.68;;;0.20;;
40489;SDS011;26196;52.302;10.572;2023-02-04T04:25:44;1.40;;;0.65;;
40489;SDS011;26196;52.302;10.572;2023-02-04T04:29:44;0.32;;;0.32;;
40489;SDS011;26196;52.302;10.572;2023-02-04T04:33:44;0.77;;;0.38;;
40489;SDS011;26196;52.302;10.572;2023-02-04T04:37:44;1.13;;;0.23;;
40489;SDS011;26196;52.302;10.572;2023-02-04T04:41:45;0.40;;;0.30;;
40489;SDS011;26196;52.302;10.572;2023-02-04T04:45:45;0.50;;;0.40;;
40489;SDS011;26196;52.302;10.572;2023-02-04T04:49:45;0.38;;;0.38;;
40489;SDS011;26196;52.302;10.572;2023-02-04T04:53:46;0.52;;;0.32;;
40489;SDS011;26196;52.302;10.572;2023-02-04T05:02:21;0.95;;;0.40;;
40489;SDS011;26196;52.302;10.572;2023-02-04T05:06:21;0.95;;;0.30;;
40489;SDS011;26196;52.302;10.572;2023-02-04T05:10:24;0.75;;;0.32;;
40489;SDS011;26196;52.302;10.572;2023-02-04T05:14:24;2.80;;;0.65;;
40489;SDS011;26196;52.302;10.572;2023-02-04T05:18:24;0.53;;;0.40;;
40489;SDS011;26196;52.302;10.572;2023-02-04T05:27:00;1.10;;;0.40;;
40489;SDS011;26196;52.302;10.572;2023-02-04T05:31:01;0.88;;;0.38;;
40489;SDS011;26196;52.302;10.572;2023-02-04T05:35:01;0.47;;;0.32;;
40489;SDS011;26196;52.302;10.572;2023-02-04T05:39:02;0.35;;;0.20;;
40489;SDS011;26196;52.302;10.572;2023-02-04T05:43:02;1.23;;;0.47;;
40489;SDS011;26196;52.302;10.572;2023-02-04T05:47:04;0.65;;;0.30;;
40489;SDS011;26196;52.302;10.572;2023-02-04T05:51:04;0.47;;;0.30;;
40489;SDS011;26196;52.302;10.572;2023-02-04T05:59:39;0.82;;;0.52;;
40489;SDS011;26196;52.302;10.572;2023-02-04T06:03:39;0.60;;;0.40;;
40489;SDS011;26196;52.302;10.572;2023-02-04T06:12:17;1.23;;;0.32;;
40489;SDS011;26196;52.302;10.572;2023-02-04T06:16:17;0.88;;;0.50;;
40489;SDS011;26196;52.302;10.572;2023-02-04T06:20:17;0.30;;;0.30;;
40489;SDS011;26196;52.302;10.572;2023-02-04T06:28:55;0.63;;;0.50;;
40489;SDS011;26196;52.302;10.572;2023-02-04T06:37:34;1.65;;;0.88;;
40489;SDS011;26196;52.302;10.572;2023-02-04T07:18:47;2.65;;;1.30;;
40489;SDS011;26196;52.302;10.572;2023-02-04T07:22:48;3.67;;;1.40;;
40489;SDS011;26196;52.302;10.572;2023-02-04T07:26:48;5.60;;;1.27;;
40489;SDS011;26196;52.302;10.572;2023-02-04T07:35:24;4.60;;;1.85;;
40489;SDS011;26196;52.302;10.572;2023-02-04T07:39:24;4.20;;;1.50;;
40489;SDS011;26196;52.302;10.572;2023-02-04T07:48:02;4.32;;;1.70;;
40489;SDS011;26196;52.302;10.572;2023-02-04T07:52:03;4.45;;;1.65;;
40489;SDS011;26196;52.302;10.572;2023-02-04T07:56:22;5.68;;;1.88;;
40489;SDS011;26196;52.302;10.572;2023-02-04T08:00:22;4.22;;;1.17;;
40489;SDS011;26196;52.302;10.572;2023-02-04T08:04:22;2.97;;;1.33;;
40489;SDS011;26196;52.302;10.572;2023-02-04T08:08:23;1.93;;;1.00;;
40489;SDS011;26196;52.302;10.572;2023-02-04T08:12:23;1.90;;;0.90;;
40489;SDS011;26196;52.302;10.572;2023-02-04T08:16:23;3.75;;;1.20;;
40489;SDS011;26196;52.302;10.572;2023-02-04T08:20:24;2.40;;;0.90;;
40489;SDS011;26196;52.302;10.572;2023-02-04T08:24:24;1.85;;;0.88;;
40489;SDS011;26196;52.302;10.572;2023-02-04T08:28:24;2.55;;;0.98;;
40489;SDS011;26196;52.302;10.572;2023-02-04T08:32:25;1.42;;;0.90;;
40489;SDS011;26196;52.302;10.572;2023-02-04T08:36:27;2.80;;;0.93;;
40489;SDS011;26196;52.302;10.572;2023-02-04T08:45:02;4.55;;;1.67;;
40489;SDS011;26196;52.302;10.572;2023-02-04T08:49:03;1.83;;;1.20;;
40489;SDS011;26196;52.302;10.572;2023-02-04T08:53:03;2.10;;;1.35;;
40489;SDS011;26196;52.302;10.572;2023-02-04T09:01:38;4.80;;;1.52;;
40489;SDS011;26196;52.302;10.572;2023-02-04T09:05:38;1.80;;;1.23;;
40489;SDS011;26196;52.302;10.572;2023-02-04T09:14:16;2.75;;;1.00;;
40489;SDS011;26196;52.302;10.572;2023-02-04T09:18:17;2.17;;;0.98;;
40489;SDS011;26196;52.302;10.572;2023-02-04T09:58:55;1.77;;;0.93;;
40489;SDS011;26196;52.302;10.572;2023-02-04T10:02:59;2.17;;;0.90;;
40489;SDS011;26196;52.302;10.572;2023-02-04T10:11:36;1.10;;;1.00;;
40489;SDS011;26196;52.302;10.572;2023-02-04T10:15:39;0.77;;;0.50;;
40489;SDS011;26196;52.302;10.572;2023-02-04T10:19:39;2.05;;;0.45;;
40489;SDS011;26196;52.302;10.572;2023-02-04T10:32:57;1.30;;;0.60;;
40489;SDS011;26196;52.302;10.572;2023-02-04T10:36:58;0.95;;;0.40;;
40489;SDS011;26196;52.302;10.572;2023-02-04T10:50:34;1.42;;;0.50;;
40489;SDS011;26196;52.302;10.572;2023-02-04T11:45:30;1.10;;;0.47;;
40489;SDS011;26196;52.302;10.572;2023-02-04T12:08:07;1.52;;;0.50;;
40489;SDS011;26196;52.302;10.572;2023-02-04T12:16:47;1.00;;;0.45;;
40489;SDS011;26196;52.302;10.572;2023-02-04T12:53:34;1.40;;;0.65;;
40489;SDS011;26196;52.302;10.572;2023-02-04T13:07:16;0.98;;;0.75;;
40489;SDS011;26196;52.302;10.572;2023-02-04T13:11:16;1.30;;;0.30;;
40489;SDS011;26196;52.302;10.572;2023-02-04T13:46:57;1.00;;;0.30;;
40489;SDS011;26196;52.302;10.572;2023-02-04T13:50:57;0.80;;;0.30;;
40489;SDS011;26196;52.302;10.572;2023-02-04T13:59:32;1.20;;;0.30;;
40489;SDS011;26196;52.302;10.572;2023-02-04T15:40:01;3.33;;;1.42;;
40489;SDS011;26196;52.302;10.572;2023-02-04T16:30:04;3.58;;;0.70;;
40489;SDS011;26196;52.302;10.572;2023-02-04T16:34:04;1.67;;;0.80;;
40489;SDS011;26196;52.302;10.572;2023-02-04T16:47:16;4.78;;;0.60;;
40489;SDS011;26196;52.302;10.572;2023-02-04T17:00:34;1.75;;;0.75;;
40489;SDS011;26196;52.302;10.572;2023-02-04T17:50:35;6.60;;;2.53;;
40489;SDS011;26196;52.302;10.572;2023-02-04T17:59:21;4.90;;;2.70;;
40489;SDS011;26196;52.302;10.572;2023-02-04T18:03:23;5.38;;;3.08;;
40489;SDS011;26196;52.302;10.572;2023-02-04T18:07:25;4.53;;;2.38;;
40489;SDS011;26196;52.302;10.572;2023-02-04T18:11:27;3.80;;;2.70;;
40489;SDS011;26196;52.302;10.572;2023-02-04T18:38:49;6.07;;;2.90;;
40489;SDS011;26196;52.302;10.572;2023-02-04T18:57:19;9.50;;;3.90;;
40489;SDS011;26196;52.302;10.572;2023-02-04T19:56:38;7.20;;;4.82;;
40489;SDS011;26196;52.302;10.572;2023-02-04T20:28:33;12.90;;;6.68;;
40489;SDS011;26196;52.302;10.572;2023-02-04T20:32:37;8.68;;;5.95;;
40489;SDS011;26196;52.302;10.572;2023-02-04T20:36:42;12.02;;;6.50;;
40489;SDS011;26196;52.302;10.572;2023-02-04T21:13:09;10.75;;;6.22;;
40489;SDS011;26196;52.302;10.572;2023-02-04T21:21:46;9.32;;;6.00;;
40489;SDS011;26196;52.302;10.572;2023-02-04T21:25:47;7.60;;;4.60;;
40489;SDS011;26196;52.302;10.572;2023-02-04T21:29:47;7.97;;;4.38;;
40489;SDS011;26196;52.302;10.572;2023-02-04T21:47:59;9.07;;;3.93;;
40489;SDS011;26196;52.302;10.572;2023-02-04T22:15:03;9.25;;;4.93;;
40489;SDS011;26196;52.302;10.572;2023-02-04T22:51:55;4.40;;;3.03;;
40489;SDS011;26196;52.302;10.572;2023-02-04T22:55:56;4.72;;;3.38;;
40489;SDS011;26196;52.302;10.572;2023-02-04T23:32:14;3.97;;;3.08;;
40489;SDS011;26196;52.302;10.572;2023-02-04T23:36:14;5.35;;;3.25;;
40489;SDS011;26196;52.302;10.572;2023-02-04T23:40:15;4.55;;;3.00;;
